createdAt,value
2023-01-02T00:02:44.540Z,14.43
2023-01-02T00:05:47.602Z,14.45
2023-01-02T00:08:49.391Z,14.29
2023-01-02T00:11:51.032Z,14.32
2023-01-02T00:14:52.693Z,14.34
2023-01-02T00:17:54.354Z,14.32
2023-01-02T00:21:01.589Z,14.26
2023-01-02T00:24:03.546Z,14.27
2023-01-02T00:27:05.374Z,14.31
2023-01-02T00:30:08.351Z,13.97
2023-01-02T00:33:10.071Z,14.18
2023-01-02T00:36:13.584Z,14.22
2023-01-02T00:39:15.376Z,14.17
2023-01-02T00:42:17.149Z,14.32
2023-01-02T00:45:18.931Z,14.28
2023-01-02T00:48:21.031Z,14.34
2023-01-02T00:51:24.062Z,14.35
2023-01-02T00:54:25.697Z,14.52
2023-01-02T00:57:27.334Z,14.46
2023-01-02T01:00:29.638Z,14.58
2023-01-02T01:03:31.841Z,14.49
2023-01-02T01:06:34.995Z,14.49
2023-01-02T01:09:36.677Z,14.64
2023-01-02T01:12:38.309Z,14.68
2023-01-02T01:15:39.942Z,14.75
2023-01-02T01:18:42.757Z,14.89
2023-01-02T01:21:45.979Z,14.84
2023-01-02T01:24:47.836Z,14.83
2023-01-02T01:27:52.684Z,14.72
2023-01-02T01:30:54.917Z,14.84
2023-01-02T01:33:56.624Z,14.81
2023-01-02T01:36:59.591Z,14.77
2023-01-02T01:40:01.241Z,14.68
2023-01-02T01:43:02.912Z,14.84
2023-01-02T01:46:06.901Z,14.81
2023-01-02T01:49:14.128Z,14.88
2023-01-02T01:52:21.861Z,14.88
2023-01-02T01:55:28.905Z,14.76
2023-01-02T01:58:34.388Z,14.77
2023-01-02T02:01:36.631Z,14.93
2023-01-02T02:04:38.840Z,15.04
2023-01-02T02:07:48.299Z,14.93
2023-01-02T02:10:51.123Z,14.91
2023-01-02T02:13:58.312Z,14.85
2023-01-02T02:17:07.834Z,14.80
2023-01-02T02:20:20.309Z,14.78
2023-01-02T02:23:53.861Z,14.73
2023-01-02T02:27:12.450Z,14.81
2023-01-02T02:30:17.359Z,14.78
2023-01-02T02:33:31.179Z,14.67
2023-01-02T02:36:38.250Z,14.79
2023-01-02T02:39:51.619Z,14.76
2023-01-02T02:43:05.235Z,14.71
2023-01-02T02:46:15.015Z,14.96
2023-01-02T02:49:28.823Z,14.83
2023-01-02T02:52:34.754Z,14.86
2023-01-02T02:55:41.441Z,14.79
2023-01-02T02:58:43.640Z,14.75
2023-01-02T03:01:46.711Z,14.77
2023-01-02T03:04:52.200Z,14.83
2023-01-02T03:07:58.640Z,14.89
2023-01-02T03:11:02.474Z,14.81
2023-01-02T03:14:07.559Z,14.83
2023-01-02T03:17:19.845Z,14.89
2023-01-02T03:20:25.044Z,14.82
2023-01-02T03:23:29.906Z,14.94
2023-01-02T03:26:34.681Z,14.93
2023-01-02T03:29:39.564Z,15.07
2023-01-02T03:32:45.952Z,15.04
2023-01-02T03:35:53.265Z,14.88
2023-01-02T03:39:01.991Z,14.95
2023-01-02T03:42:10.164Z,14.88
2023-01-02T03:45:16.614Z,14.68
2023-01-02T03:48:27.609Z,14.64
2023-01-02T03:51:29.306Z,14.67
2023-01-02T03:54:31.514Z,14.77
2023-01-02T03:57:42.251Z,14.71
2023-01-02T04:00:54.085Z,14.66
2023-01-02T04:04:03.380Z,14.63
2023-01-02T04:07:10.981Z,14.53
2023-01-02T04:10:15.419Z,14.51
2023-01-02T04:13:21.741Z,14.57
2023-01-02T04:16:28.175Z,14.43
2023-01-02T04:19:35.314Z,14.37
2023-01-02T04:22:41.924Z,14.32
2023-01-02T04:25:47.440Z,14.43
2023-01-02T04:28:49.599Z,14.45
2023-01-02T04:31:56.320Z,14.41
2023-01-02T04:35:04.632Z,14.45
2023-01-02T04:38:07.653Z,14.50
2023-01-02T04:41:11.396Z,14.37
2023-01-02T04:44:13.031Z,14.20
2023-01-02T04:47:21.498Z,14.15
2023-01-02T04:50:24.894Z,14.09
2023-01-02T04:53:26.585Z,14.01
2023-01-02T04:56:28.228Z,14.05
2023-01-02T04:59:29.914Z,13.94
2023-01-02T05:02:35.036Z,14.09
2023-01-02T05:05:38.061Z,14.18
2023-01-02T05:08:39.854Z,14.10
2023-01-02T05:11:41.626Z,13.89
2023-01-02T05:14:43.295Z,14.11
2023-01-02T05:17:44.903Z,13.88
2023-01-02T05:20:47.856Z,13.87
2023-01-02T05:23:49.443Z,14.13
2023-01-02T05:26:51.133Z,14.13
2023-01-02T05:29:52.800Z,14.05
2023-01-02T05:32:54.792Z,14.15
2023-01-02T05:35:57.817Z,14.15
2023-01-02T05:39:00.807Z,14.04
2023-01-02T05:42:02.483Z,13.90
2023-01-02T05:45:05.344Z,14.05
2023-01-02T05:48:06.983Z,13.94
2023-01-02T05:51:12.417Z,13.87
2023-01-02T05:54:14.854Z,14.10
2023-01-02T05:57:17.217Z,13.99
2023-01-02T06:00:19.217Z,13.86
2023-01-02T06:03:20.929Z,13.98
2023-01-02T06:06:25.886Z,14.09
2023-01-02T06:09:27.727Z,13.86
2023-01-02T06:12:29.375Z,14.19
2023-01-02T06:15:31.101Z,14.26
2023-01-02T06:18:34.472Z,14.18
2023-01-02T06:21:37.554Z,14.17
2023-01-02T06:24:39.238Z,14.07
2023-01-02T06:27:40.900Z,14.21
2023-01-02T06:30:42.567Z,14.31
2023-01-02T06:33:44.592Z,14.29
2023-01-02T06:36:47.698Z,14.33
2023-01-02T06:39:49.403Z,14.44
2023-01-02T06:42:52.929Z,14.47
2023-01-02T06:45:58.646Z,14.46
2023-01-02T06:49:00.340Z,14.50
2023-01-02T06:52:03.546Z,14.53
2023-01-02T06:55:06.049Z,14.46
2023-01-02T06:58:12.241Z,14.40
2023-01-02T07:01:18.723Z,14.51
2023-01-02T07:04:20.589Z,14.56
2023-01-02T07:07:23.570Z,14.56
2023-01-02T07:10:25.245Z,14.44
2023-01-02T07:13:26.888Z,14.29
2023-01-02T07:16:28.603Z,14.43
2023-01-02T07:19:30.305Z,14.32
2023-01-02T07:22:33.332Z,14.37
2023-01-02T07:25:39.400Z,14.32
2023-01-02T07:28:45.639Z,14.37
2023-01-02T07:31:47.438Z,14.38
2023-01-02T07:34:49.252Z,14.35
2023-01-02T07:37:52.852Z,14.25
2023-01-02T07:40:55.310Z,14.26
2023-01-02T07:43:57.025Z,14.27
2023-01-02T07:46:58.723Z,14.24
2023-01-02T07:50:00.416Z,14.25
2023-01-02T07:53:03.527Z,14.24
2023-01-02T07:56:05.881Z,14.26
2023-01-02T07:59:07.649Z,14.31
2023-01-02T08:02:10.550Z,14.24
2023-01-02T08:05:12.744Z,14.24
2023-01-02T08:08:16.069Z,14.11
2023-01-02T08:11:20.196Z,14.21
2023-01-02T08:14:23.756Z,14.32
2023-01-02T08:17:25.632Z,14.29
2023-01-02T08:20:27.441Z,14.42
2023-01-02T08:23:31.303Z,14.56
2023-01-02T08:26:33.976Z,14.61
2023-01-02T08:29:35.676Z,14.61
2023-01-02T08:32:37.976Z,14.58
2023-01-02T08:35:39.721Z,14.57
2023-01-02T08:38:45.567Z,14.53
2023-01-02T08:41:47.240Z,14.60
2023-01-02T08:44:49.171Z,14.56
2023-01-02T08:47:50.917Z,14.45
2023-01-02T08:50:52.549Z,14.48
2023-01-02T08:53:55.615Z,14.47
2023-01-02T08:56:57.276Z,14.44
2023-01-02T08:59:59.040Z,14.41
2023-01-02T09:03:00.845Z,14.37
2023-01-02T09:06:02.689Z,14.49
2023-01-02T09:09:11.521Z,14.48
2023-01-02T09:12:13.834Z,14.41
2023-01-02T09:15:15.560Z,14.42
2023-01-02T09:18:17.215Z,14.36
2023-01-02T09:21:20.239Z,14.41
2023-01-02T09:24:23.314Z,14.38
2023-01-02T09:27:25.032Z,14.37
2023-01-02T09:30:26.655Z,14.33
2023-01-02T09:33:28.418Z,14.46
2023-01-02T09:36:30.061Z,14.46
2023-01-02T09:39:33.135Z,14.42
2023-01-02T09:42:34.986Z,14.46
2023-01-02T09:45:40.483Z,14.45
2023-01-02T09:48:43.221Z,14.41
2023-01-02T09:51:45.554Z,14.34
2023-01-02T09:54:48.667Z,14.32
2023-01-02T09:57:58.888Z,14.39
2023-01-02T10:01:00.552Z,14.57
2023-01-02T10:04:15.345Z,14.79
2023-01-02T10:07:23.228Z,14.89
2023-01-02T10:10:30.534Z,14.90
2023-01-02T10:14:16.723Z,14.99
2023-01-02T10:17:03.286Z,15.19
2023-01-02T10:20:08.479Z,15.42
2023-01-02T10:23:13.342Z,15.25
2023-01-02T10:26:18.630Z,15.14
2023-01-02T10:29:28.606Z,15.03
2023-01-02T10:32:32.328Z,15.12
2023-01-02T10:35:39.050Z,15.02
2023-01-02T10:38:41.047Z,14.95
2023-01-02T10:41:50.371Z,14.93
2023-01-02T10:44:52.823Z,15.01
2023-01-02T10:47:54.962Z,15.00
2023-01-02T10:51:00.964Z,15.02
2023-01-02T10:54:05.715Z,14.95
2023-01-02T10:57:20.371Z,14.89
2023-01-02T11:00:28.501Z,14.80
2023-01-02T11:03:31.115Z,14.83
2023-01-02T11:06:39.265Z,14.85
2023-01-02T11:09:54.745Z,14.91
2023-01-02T11:13:02.203Z,14.74
2023-01-02T11:16:04.655Z,14.30
2023-01-02T11:19:09.138Z,14.13
2023-01-02T11:22:13.613Z,14.13
2023-01-02T11:25:21.199Z,14.18
2023-01-02T11:28:26.952Z,14.11
2023-01-02T11:31:28.750Z,14.27
2023-01-02T11:34:34.539Z,14.36
2023-01-02T11:37:36.446Z,14.48
2023-01-02T11:40:50.956Z,14.42
2023-01-02T11:44:00.255Z,14.53
2023-01-02T11:47:04.348Z,14.62
2023-01-02T11:50:07.251Z,14.63
2023-01-02T11:53:18.715Z,14.61
2023-01-02T11:56:26.989Z,14.60
2023-01-02T11:59:36.257Z,14.64
2023-01-02T12:02:41.903Z,14.57
2023-01-02T12:06:02.214Z,13.91
2023-01-02T12:09:06.296Z,13.74
2023-01-02T12:12:25.442Z,14.22
2023-01-02T12:15:52.307Z,14.12
2023-01-02T12:19:08.309Z,13.97
2023-01-02T12:22:25.355Z,13.66
2023-01-02T12:25:37.728Z,13.39
2023-01-02T12:29:12.329Z,13.66
2023-01-02T12:32:51.111Z,13.19
2023-01-02T12:36:18.469Z,12.83
2023-01-02T12:39:38.728Z,12.81
2023-01-02T12:42:57.605Z,13.02
2023-01-02T12:46:08.704Z,12.72
2023-01-02T12:49:33.832Z,12.65
2023-01-02T12:52:49.768Z,12.66
2023-01-02T12:56:02.476Z,12.43
2023-01-02T12:59:27.907Z,12.47
2023-01-02T13:02:50.982Z,12.21
2023-01-02T13:05:59.710Z,12.04
2023-01-02T13:09:06.403Z,11.97
2023-01-02T13:12:14.262Z,11.92
2023-01-02T13:15:19.537Z,11.97
2023-01-02T13:18:27.595Z,11.92
2023-01-02T13:21:39.405Z,11.87
2023-01-02T13:24:41.308Z,11.87
2023-01-02T13:27:44.652Z,11.91
2023-01-02T13:31:19.118Z,11.99
2023-01-02T13:34:23.236Z,12.01
2023-01-02T13:37:28.967Z,11.80
2023-01-02T13:40:35.439Z,11.78
2023-01-02T13:43:39.139Z,11.89
2023-01-02T13:50:09.673Z,12.20
2023-01-02T13:53:30.477Z,12.15
2023-01-02T13:56:32.118Z,12.24
2023-01-02T13:59:42.228Z,12.23
2023-01-02T14:03:17.073Z,12.38
2023-01-02T14:06:29.852Z,12.27
2023-01-02T14:10:02.068Z,12.39
2023-01-02T14:13:22.253Z,12.71
2023-01-02T14:16:59.170Z,12.54
2023-01-02T14:20:22.320Z,12.65
2023-01-02T14:23:28.159Z,12.99
2023-01-02T14:26:33.834Z,13.00
2023-01-02T14:29:46.026Z,12.69
2023-01-02T14:32:53.325Z,12.75
2023-01-02T14:36:00.942Z,12.79
2023-01-02T14:39:02.925Z,12.62
2023-01-02T14:42:47.283Z,12.64
2023-01-02T14:45:50.960Z,12.73
2023-01-02T14:48:58.122Z,12.90
2023-01-02T14:52:02.406Z,12.81
2023-01-02T14:55:10.522Z,12.77
2023-01-02T14:58:20.444Z,12.86
2023-01-02T15:01:43.518Z,12.80
2023-01-02T15:04:50.763Z,12.66
2023-01-02T15:07:56.593Z,12.77
2023-01-02T15:11:19.743Z,12.88
2023-01-02T15:14:24.219Z,12.91
2023-01-02T15:17:26.726Z,13.22
2023-01-02T15:20:30.044Z,13.10
2023-01-02T15:23:31.922Z,13.11
2023-01-02T15:26:34.975Z,13.20
2023-01-02T15:29:47.497Z,13.39
2023-01-02T15:32:50.068Z,13.29
2023-01-02T15:35:55.273Z,13.41
2023-01-02T15:39:04.145Z,13.35
2023-01-02T15:42:29.148Z,13.26
2023-01-02T15:45:33.179Z,13.41
2023-01-02T15:48:37.232Z,13.33
2023-01-02T15:51:40.691Z,13.21
2023-01-02T15:54:43.557Z,13.26
2023-01-02T15:57:47.993Z,13.29
2023-01-02T16:01:13.597Z,13.33
2023-01-02T16:04:24.768Z,13.23
2023-01-02T16:07:26.991Z,13.27
2023-01-02T16:10:30.016Z,13.34
2023-01-02T16:13:55.873Z,12.92
2023-01-02T16:17:04.529Z,11.46
2023-01-02T16:20:16.115Z,11.03
2023-01-02T16:23:21.133Z,10.86
2023-01-02T16:26:30.714Z,10.78
2023-01-02T16:29:32.610Z,10.89
2023-01-02T16:32:35.664Z,10.90
2023-01-02T16:35:37.412Z,10.84
2023-01-02T16:38:46.900Z,10.90
2023-01-02T16:42:16.851Z,10.86
2023-01-02T16:45:19.576Z,10.72
2023-01-02T16:48:25.371Z,10.62
2023-01-02T16:51:27.006Z,10.70
2023-01-02T16:54:28.640Z,10.77
2023-01-02T16:57:30.452Z,10.57
2023-01-02T17:00:33.328Z,10.59
2023-01-02T17:03:39.157Z,10.63
2023-01-02T17:06:40.819Z,10.65
2023-01-02T17:09:42.464Z,10.58
2023-01-02T17:12:44.451Z,10.43
2023-01-02T17:15:46.148Z,10.33
2023-01-02T17:18:49.081Z,10.28
2023-01-02T17:21:51.235Z,10.28
2023-01-02T17:24:52.870Z,10.18
2023-01-02T17:27:54.540Z,10.28
2023-01-02T17:30:56.644Z,10.39
2023-01-02T17:34:02.985Z,10.33
2023-01-02T17:37:04.670Z,10.39
2023-01-02T17:40:08.534Z,10.47
2023-01-02T17:43:10.197Z,10.58
2023-01-02T17:46:48.727Z,10.58
2023-01-02T17:49:35.022Z,10.49
2023-01-02T17:52:38.044Z,10.45
2023-01-02T17:55:39.687Z,10.44
2023-01-02T17:58:42.016Z,10.47
2023-01-02T18:01:43.766Z,10.48
2023-01-02T18:04:54.520Z,10.44
2023-01-02T18:07:58.487Z,10.44
2023-01-02T18:11:00.244Z,10.42
2023-01-02T18:14:03.015Z,10.40
2023-01-02T18:17:14.052Z,10.36
2023-01-02T18:20:20.756Z,10.38
2023-01-02T18:23:22.379Z,10.41
2023-01-02T18:26:25.132Z,10.33
2023-01-02T18:29:26.827Z,10.36
2023-01-02T18:32:32.950Z,10.49
2023-01-02T18:39:06.679Z,10.42
2023-01-02T18:42:11.993Z,10.41
2023-01-02T18:45:16.912Z,10.33
2023-01-02T18:48:19.240Z,10.30
2023-01-02T18:51:24.063Z,10.42
2023-01-02T18:54:29.014Z,10.38
2023-01-02T18:57:33.054Z,10.30
2023-01-02T19:00:38.667Z,10.19
2023-01-02T19:03:40.468Z,10.01
2023-01-02T19:06:47.083Z,9.94
2023-01-02T19:09:48.690Z,9.92
2023-01-02T19:13:07.573Z,9.82
2023-01-02T19:16:13.229Z,9.84
2023-01-02T19:19:16.764Z,9.83
2023-01-02T19:22:24.963Z,9.64
2023-01-02T19:25:26.828Z,9.68
2023-01-02T19:28:31.401Z,9.40
2023-01-02T19:31:40.931Z,9.24
2023-01-02T19:34:45.642Z,9.24
2023-01-02T19:37:48.569Z,9.16
2023-01-02T19:40:50.246Z,9.21
2023-01-02T19:43:51.901Z,9.23
2023-01-02T19:46:53.631Z,9.11
2023-01-02T19:49:55.578Z,8.98
2023-01-02T19:52:58.602Z,8.92
2023-01-02T19:56:00.294Z,8.93
2023-01-02T19:59:01.922Z,9.01
2023-01-02T20:02:04.296Z,9.03
2023-01-02T20:05:06.490Z,9.11
2023-01-02T20:08:09.519Z,9.16
2023-01-02T20:11:31.185Z,9.20
2023-01-02T20:14:32.862Z,9.21
2023-01-02T20:17:35.583Z,9.31
2023-01-02T20:20:37.292Z,9.36
2023-01-02T20:23:40.339Z,9.55
2023-01-02T20:26:42.037Z,9.64
2023-01-02T20:29:43.645Z,9.65
2023-01-02T20:32:45.600Z,9.71
2023-01-02T20:35:47.242Z,9.60
2023-01-02T20:38:50.295Z,9.70
2023-01-02T20:41:51.954Z,9.62
2023-01-02T20:44:53.671Z,9.59
2023-01-02T20:47:55.327Z,9.75
2023-01-02T20:50:56.931Z,9.80
2023-01-02T20:54:00.355Z,9.74
2023-01-02T20:57:02.909Z,9.76
2023-01-02T21:00:09.739Z,9.78
2023-01-02T21:03:11.877Z,9.79
2023-01-02T21:06:13.899Z,9.91
2023-01-02T21:09:16.998Z,9.93
2023-01-02T21:12:37.435Z,9.96
2023-01-02T21:15:46.841Z,9.96
2023-01-02T21:18:48.608Z,9.92
2023-01-02T21:21:50.326Z,9.87
2023-01-02T21:24:53.325Z,9.86
2023-01-02T21:27:55.095Z,9.82
2023-01-02T21:30:57.066Z,9.80
2023-01-02T21:33:58.720Z,9.85
2023-01-02T21:37:00.390Z,9.89
2023-01-02T21:40:05.672Z,9.83
2023-01-02T21:43:07.930Z,9.85
2023-01-02T21:46:09.732Z,9.86
2023-01-02T21:49:11.493Z,9.80
2023-01-02T21:52:13.232Z,9.91
2023-01-02T21:55:17.570Z,9.85
2023-01-02T22:01:35.188Z,9.71
2023-01-02T22:04:37.088Z,9.68
2023-01-02T22:07:42.347Z,9.65
2023-01-02T22:10:45.712Z,9.72
2023-01-02T22:13:47.399Z,9.89
2023-01-02T22:16:49.422Z,9.87
2023-01-02T22:19:51.239Z,9.85
2023-01-02T22:22:52.849Z,9.68
2023-01-02T22:25:55.947Z,9.58
2023-01-02T22:28:58.098Z,9.53
2023-01-02T22:32:00.205Z,9.46
2023-01-02T22:35:04.148Z,9.44
2023-01-02T22:38:05.803Z,9.40
2023-01-02T22:41:09.066Z,9.35
2023-01-02T22:44:14.609Z,9.27
2023-01-02T22:47:24.599Z,9.15
2023-01-02T22:50:29.727Z,9.05
2023-01-02T22:53:33.882Z,8.98
2023-01-02T22:56:36.887Z,8.79
2023-01-02T22:59:39.012Z,8.84
2023-01-02T23:02:40.613Z,9.08
2023-01-02T23:05:42.827Z,8.94
2023-01-02T23:08:44.685Z,9.04
2023-01-02T23:11:47.688Z,9.17
2023-01-02T23:14:49.316Z,9.12
2023-01-02T23:18:09.907Z,9.09
2023-01-02T23:21:11.684Z,9.07
2023-01-02T23:24:15.949Z,9.01
2023-01-02T23:27:19.095Z,8.97
2023-01-02T23:30:20.864Z,8.91
2023-01-02T23:33:22.531Z,8.91
2023-01-02T23:36:24.527Z,8.89
2023-01-02T23:39:27.631Z,8.87
2023-01-02T23:42:30.784Z,8.79
2023-01-02T23:45:32.469Z,8.73
2023-01-02T23:48:34.236Z,8.70
2023-01-02T23:51:36.470Z,8.69
2023-01-02T23:54:38.133Z,8.64
2023-01-02T23:57:41.208Z,8.54
